Terminal Aerodrome Forecast
Issued by NWS Corpus Christi, TX

Home | Current Version | Previous Version | Text Only | Print | Product List | Glossary On
Versions: 1 2 3 4 5 6 7 8 9 10 11 12 13
000
FTUS44 KCRP 162333
TAFVCT
TAF
KVCT 162333Z 1700/1724 36008KT 4SM -RA OVC012
     FM170600 36006KT 4SM BR VCSH OVC004
     FM170900 34004KT 1SM BR OVC002
     FM171500 04004KT 3SM BR OVC008
     FM171800 14006KT P6SM OVC015=

USA.gov is the U.S. government's official web portal to all federal, state and local government web resources and services.